Time;durP1;ratioP1;P1;durP2;ratioP2;P2;SDS_P1;SDS_P2;PMS_P1;PMS_P2;Temp;Humidity;BMP_temperature;BMP_pressure;BME280_temperature;BME280_humidity;BME280_pressure;Samples;Min_cycle;Max_cycle;Signal;HPM_P1;HPM_P2
2021/08/29 00:01:59;;;;;;;6.53;2.58;;;15.30;99.90;;;;;;5066432;28;20088;-76
2021/08/29 00:04:24;;;;;;;6.82;2.83;;;15.30;99.90;;;;;;5064830;28;20056;-75
2021/08/29 00:06:50;;;;;;;7.20;2.85;;;15.20;99.90;;;;;;5066187;28;20036;-74
2021/08/29 00:09:16;;;;;;;5.03;2.95;;;15.30;99.90;;;;;;5081516;28;20035;-75
2021/08/29 00:11:42;;;;;;;5.03;2.92;;;15.40;99.90;;;;;;5065194;28;20033;-74
2021/08/29 00:14:07;;;;;;;7.45;2.58;;;15.20;99.90;;;;;;5066474;28;20047;-75
2021/08/29 00:16:33;;;;;;;4.05;2.40;;;15.20;99.90;;;;;;5066249;28;20089;-75
2021/08/29 00:18:58;;;;;;;8.55;2.80;;;15.20;99.90;;;;;;5065867;28;20049;-75
2021/08/29 00:21:24;;;;;;;5.68;2.85;;;15.30;99.90;;;;;;5065997;28;20029;-75
2021/08/29 00:23:50;;;;;;;4.80;2.45;;;15.30;99.90;;;;;;5081312;28;20031;-76
2021/08/29 00:26:15;;;;;;;6.75;2.95;;;15.30;99.90;;;;;;5081756;28;20051;-77
2021/08/29 00:28:41;;;;;;;5.32;3.00;;;15.20;99.90;;;;;;5066083;28;20035;-77
2021/08/29 00:31:07;;;;;;;9.20;3.08;;;15.30;99.90;;;;;;5065834;28;20037;-78
2021/08/29 00:33:32;;;;;;;3.78;2.25;;;15.20;99.90;;;;;;5065709;28;20543;-76
2021/08/29 00:35:58;;;;;;;5.13;2.65;;;15.30;99.90;;;;;;5081396;28;20025;-75
2021/08/29 00:38:24;;;;;;;5.07;2.60;;;15.30;99.90;;;;;;5081133;28;20021;-76
2021/08/29 00:40:50;;;;;;;6.05;3.17;;;15.30;99.90;;;;;;5065908;28;20079;-77
2021/08/29 00:43:16;;;;;;;6.68;1.90;;;15.30;99.90;;;;;;5081162;28;20097;-76
2021/08/29 00:45:43;;;;;;;10.40;3.20;;;15.30;99.90;;;;;;5081112;28;20033;-77
2021/08/29 00:48:10;;;;;;;8.88;3.05;;;15.20;99.90;;;;;;5065623;28;20026;-77
2021/08/29 00:50:42;;;;;;;3.35;2.35;;;15.20;99.90;;;;;;5065516;28;20436;-75
2021/08/29 00:53:07;;;;;;;6.68;2.67;;;15.20;99.90;;;;;;5081096;28;20412;-75
2021/08/29 00:55:35;;;;;;;10.20;3.22;;;15.20;99.90;;;;;;5065573;28;20049;-75
2021/08/29 00:58:00;;;;;;;9.27;3.33;;;15.20;99.90;;;;;;5065251;28;20036;-77
2021/08/29 01:00:26;;;;;;;5.40;2.75;;;15.20;99.90;;;;;;5080661;28;20033;-75
2021/08/29 01:02:54;;;;;;;5.18;2.28;;;15.10;99.90;;;;;;5065388;28;20024;-78
2021/08/29 01:05:27;;;;;;;3.67;1.70;;;15.10;99.90;;;;;;5065267;28;20021;-77
2021/08/29 01:08:04;;;;;;;3.67;2.17;;;15.10;99.90;;;;;;5065228;28;20101;-77
2021/08/29 01:10:35;;;;;;;6.13;2.10;;;15.10;99.90;;;;;;5063982;28;20352;-78
2021/08/29 01:13:01;;;;;;;2.88;1.50;;;15.00;99.90;;;;;;5064987;28;20029;-75
2021/08/29 01:15:29;;;;;;;5.05;1.42;;;14.80;99.90;;;;;;5065172;28;20074;-76
2021/08/29 01:17:57;;;;;;;8.68;1.38;;;14.90;99.90;;;;;;5064723;28;20045;-75
2021/08/29 01:20:44;;;;;;;3.13;1.63;;;14.80;99.90;;;;;;5080458;28;20036;-74
2021/08/29 01:23:10;;;;;;;3.85;1.67;;;14.80;99.90;;;;;;5063077;28;20037;-76
2021/08/29 01:25:44;;;;;;;2.22;1.33;;;14.70;99.90;;;;;;5063424;28;20029;-75
2021/08/29 01:28:15;;;;;;;3.85;1.65;;;14.80;99.90;;;;;;5063698;28;20021;-75
2021/08/29 01:30:46;;;;;;;3.50;1.20;;;14.70;99.90;;;;;;5063688;28;20036;-76
2021/08/29 01:33:13;;;;;;;4.40;2.08;;;14.60;99.90;;;;;;5065075;28;20080;-78
2021/08/29 01:35:40;;;;;;;3.42;1.80;;;14.60;99.90;;;;;;5065004;28;20089;-74
2021/08/29 01:38:08;;;;;;;5.93;2.67;;;14.60;99.90;;;;;;5064618;28;20037;-75
2021/08/29 01:40:34;;;;;;;3.75;1.60;;;14.60;99.90;;;;;;5063353;28;20029;-75
2021/08/29 01:43:02;;;;;;;5.55;1.88;;;14.60;99.90;;;;;;5064801;28;20055;-74
2021/08/29 01:45:28;;;;;;;2.33;1.65;;;14.60;99.90;;;;;;5064613;28;20028;-74
2021/08/29 01:47:58;;;;;;;1.95;1.38;;;14.50;99.90;;;;;;5079996;28;20496;-77
2021/08/29 01:50:25;;;;;;;3.28;1.58;;;14.60;99.90;;;;;;5079969;28;20033;-75
2021/08/29 01:52:51;;;;;;;4.78;2.05;;;14.60;99.90;;;;;;5080428;28;20021;-75
2021/08/29 01:55:17;;;;;;;3.65;1.67;;;14.40;99.90;;;;;;5064693;28;20033;-74
2021/08/29 01:57:43;;;;;;;4.53;1.60;;;14.60;99.90;;;;;;5064586;28;20035;-75
2021/08/29 02:00:09;;;;;;;2.70;1.77;;;14.50;99.90;;;;;;5079981;28;20052;-74
2021/08/29 02:02:35;;;;;;;2.97;1.88;;;14.50;99.90;;;;;;5079671;28;20037;-76
2021/08/29 02:05:01;;;;;;;6.78;2.33;;;14.50;99.90;;;;;;5064460;28;20118;-75
2021/08/29 02:07:33;;;;;;;3.92;1.98;;;14.50;99.90;;;;;;5064466;28;20037;-76
2021/08/29 02:10:09;;;;;;;5.68;2.35;;;14.50;99.90;;;;;;5080073;28;20025;-76
2021/08/29 02:12:52;;;;;;;3.65;1.63;;;14.50;99.90;;;;;;5079848;28;20087;-75
2021/08/29 02:15:28;;;;;;;5.10;2.30;;;14.50;99.90;;;;;;5064787;28;20029;-75
2021/08/29 02:17:55;;;;;;;3.40;1.95;;;14.50;99.90;;;;;;5062861;28;20086;-77
2021/08/29 02:20:23;;;;;;;5.32;3.03;;;14.50;99.90;;;;;;5063451;28;20037;-76
2021/08/29 02:22:50;;;;;;;3.75;2.13;;;14.50;99.90;;;;;;5068375;28;20033;-76
2021/08/29 02:25:16;;;;;;;3.90;1.85;;;14.50;99.90;;;;;;5083626;28;20040;-77
2021/08/29 02:27:42;;;;;;;6.90;2.40;;;14.50;99.90;;;;;;5068543;28;20037;-76
2021/08/29 02:30:09;;;;;;;12.48;2.80;;;14.50;99.90;;;;;;5068437;28;20085;-75
2021/08/29 02:32:42;;;;;;;13.85;2.75;;;14.50;99.90;;;;;;5068071;28;20025;-75
2021/08/29 02:35:09;;;;;;;3.80;2.00;;;14.40;99.90;;;;;;5068195;28;20021;-76
2021/08/29 02:37:36;;;;;;;6.78;2.40;;;14.50;99.90;;;;;;5068013;28;20101;-74
2021/08/29 02:40:04;;;;;;;4.22;2.38;;;14.40;99.90;;;;;;5068508;28;20021;-76
2021/08/29 02:42:31;;;;;;;6.30;2.80;;;14.40;99.90;;;;;;5068232;28;20044;-78
2021/08/29 02:45:01;;;;;;;5.28;2.75;;;14.40;99.90;;;;;;5068031;28;20108;-76
2021/08/29 02:47:29;;;;;;;8.02;2.97;;;14.40;99.90;;;;;;5083333;28;20044;-76
2021/08/29 02:49:55;;;;;;;6.75;2.40;;;14.40;99.90;;;;;;5067890;28;20036;-77
2021/08/29 02:52:21;;;;;;;5.65;2.40;;;14.30;99.90;;;;;;5083246;28;20029;-78
2021/08/29 02:54:49;;;;;;;4.95;2.75;;;14.30;99.90;;;;;;5066616;28;20021;-75
2021/08/29 02:57:15;;;;;;;7.85;2.75;;;14.50;99.90;;;;;;5067928;28;20035;-76
2021/08/29 02:59:41;;;;;;;4.78;3.00;;;14.50;99.90;;;;;;5067862;28;20021;-74
2021/08/29 03:02:09;;;;;;;5.20;2.60;;;14.40;99.90;;;;;;5066264;28;20111;-74
2021/08/29 03:04:34;;;;;;;6.03;2.88;;;14.40;99.90;;;;;;5067506;28;20080;-74
2021/08/29 03:07:01;;;;;;;17.05;3.20;;;14.40;99.90;;;;;;5082917;28;20075;-74
2021/08/29 03:09:31;;;;;;;7.32;3.35;;;14.50;99.90;;;;;;5067242;28;20051;-74
2021/08/29 03:11:57;;;;;;;6.15;3.28;;;14.50;99.90;;;;;;5067409;28;20051;-75
2021/08/29 03:14:23;;;;;;;4.07;2.35;;;14.50;99.90;;;;;;5065938;28;20029;-75
2021/08/29 03:16:50;;;;;;;3.70;2.60;;;14.50;99.90;;;;;;5067620;28;20029;-75
2021/08/29 03:19:15;;;;;;;9.05;2.30;;;14.50;99.90;;;;;;5082380;28;20440;-76
2021/08/29 03:21:41;;;;;;;3.75;1.67;;;14.50;99.90;;;;;;5067219;28;20025;-74
2021/08/29 03:24:07;;;;;;;9.18;2.60;;;14.50;99.90;;;;;;5067279;28;20032;-75
2021/08/29 03:26:33;;;;;;;3.55;2.17;;;14.40;99.90;;;;;;5067100;28;20041;-74
2021/08/29 03:28:59;;;;;;;3.30;2.22;;;14.40;99.90;;;;;;5067156;28;20094;-75
2021/08/29 03:31:24;;;;;;;5.20;2.00;;;14.40;99.90;;;;;;5065135;28;20029;-76
2021/08/29 03:33:53;;;;;;;3.53;2.28;;;14.40;99.90;;;;;;5066031;28;20068;-76
2021/08/29 03:36:21;;;;;;;3.63;2.38;;;14.40;99.90;;;;;;5067038;28;20470;-75
2021/08/29 03:38:50;;;;;;;3.60;2.20;;;14.50;99.90;;;;;;5082322;28;20029;-74
2021/08/29 03:41:17;;;;;;;6.90;2.97;;;14.50;99.90;;;;;;5066990;28;20064;-77
2021/08/29 03:43:44;;;;;;;3.50;2.03;;;14.50;99.90;;;;;;5082546;28;20501;-75
2021/08/29 03:46:11;;;;;;;4.30;2.15;;;14.50;99.90;;;;;;5066858;28;20148;-74
2021/08/29 03:48:37;;;;;;;7.07;2.38;;;14.50;99.90;;;;;;5082063;28;20029;-75
2021/08/29 03:51:04;;;;;;;7.80;3.83;;;14.40;99.90;;;;;;5082012;28;20121;-74
2021/08/29 03:53:30;;;;;;;5.63;2.28;;;14.40;99.90;;;;;;5066715;28;20021;-75
2021/08/29 03:55:56;;;;;;;4.82;2.00;;;14.50;99.90;;;;;;5066530;28;20033;-75
2021/08/29 03:58:23;;;;;;;5.25;2.60;;;14.50;99.90;;;;;;5066780;28;20547;-75
2021/08/29 04:00:50;;;;;;;10.82;2.75;;;14.50;99.90;;;;;;5066891;28;20107;-77
2021/08/29 04:03:16;;;;;;;5.78;2.20;;;14.50;99.90;;;;;;5066399;28;20055;-76
2021/08/29 04:05:43;;;;;;;4.20;2.38;;;14.50;99.90;;;;;;5082029;28;20025;-75
2021/08/29 04:08:13;;;;;;;3.00;2.00;;;14.50;99.90;;;;;;5065121;28;20037;-75
2021/08/29 04:10:43;;;;;;;5.35;2.40;;;14.50;99.90;;;;;;5081831;28;20017;-75
2021/08/29 04:13:09;;;;;;;3.80;2.08;;;14.50;99.90;;;;;;5081796;28;20036;-76
2021/08/29 04:15:37;;;;;;;4.13;2.47;;;14.40;99.90;;;;;;5066265;28;20079;-75
2021/08/29 04:18:05;;;;;;;4.55;2.03;;;14.50;99.90;;;;;;5066012;28;20112;-75
2021/08/29 04:20:31;;;;;;;2.17;1.70;;;14.40;99.90;;;;;;5066186;28;20021;-75
2021/08/29 04:22:57;;;;;;;8.65;2.13;;;14.40;99.90;;;;;;5065787;28;20083;-75
2021/08/29 04:25:23;;;;;;;3.20;1.88;;;14.40;99.90;;;;;;5066204;28;20025;-75
2021/08/29 04:27:49;;;;;;;3.55;2.03;;;14.40;99.90;;;;;;5066158;28;20040;-77
2021/08/29 04:30:15;;;;;;;5.43;2.13;;;14.40;99.90;;;;;;5064691;28;20058;-75
2021/08/29 04:32:48;;;;;;;5.55;2.80;;;14.40;99.90;;;;;;5064613;28;20025;-74
2021/08/29 04:35:14;;;;;;;6.38;2.53;;;14.40;99.90;;;;;;5065935;28;20032;-74
2021/08/29 04:37:39;;;;;;;4.75;2.47;;;14.40;99.90;;;;;;5064312;28;20021;-75
2021/08/29 04:40:05;;;;;;;5.90;2.58;;;14.40;99.90;;;;;;5065818;28;20033;-76
2021/08/29 04:42:31;;;;;;;3.63;2.20;;;14.40;99.90;;;;;;5065655;28;20029;-74
2021/08/29 04:44:56;;;;;;;10.95;2.65;;;14.40;99.90;;;;;;5063973;28;20028;-76
2021/08/29 04:47:22;;;;;;;3.05;2.15;;;14.40;99.90;;;;;;5065507;28;20087;-76
2021/08/29 04:49:48;;;;;;;6.18;2.30;;;14.40;99.90;;;;;;5080854;28;20032;-76
2021/08/29 04:52:13;;;;;;;4.35;2.58;;;14.50;99.90;;;;;;5064857;28;20029;-74
2021/08/29 04:54:39;;;;;;;4.85;2.45;;;14.40;99.90;;;;;;5064788;28;20035;-75
2021/08/29 04:57:04;;;;;;;3.35;1.92;;;14.40;99.90;;;;;;5065442;28;20492;-75
2021/08/29 04:59:30;;;;;;;6.63;2.95;;;14.40;99.90;;;;;;5080669;28;20025;-74
2021/08/29 05:01:55;;;;;;;9.18;3.00;;;14.30;99.90;;;;;;5065309;28;20037;-75
2021/08/29 05:04:21;;;;;;;4.05;2.60;;;14.20;99.90;;;;;;5063815;28;20098;-75
2021/08/29 05:06:48;;;;;;;4.70;2.97;;;14.30;99.90;;;;;;5065424;28;20049;-75
2021/08/29 05:09:13;;;;;;;4.88;2.83;;;14.30;99.90;;;;;;5065436;28;20093;-76
2021/08/29 05:11:39;;;;;;;6.40;2.53;;;14.30;99.90;;;;;;5064738;28;20026;-75
2021/08/29 05:14:05;;;;;;;6.72;2.78;;;14.40;99.90;;;;;;5051707;28;20040;-75
2021/08/29 05:16:30;;;;;;;5.38;2.90;;;14.40;99.90;;;;;;5063748;28;20096;-76
2021/08/29 05:18:56;;;;;;;6.63;2.67;;;14.40;99.90;;;;;;5063478;28;20048;-75
2021/08/29 05:21:21;;;;;;;6.18;3.03;;;14.40;99.90;;;;;;5080449;28;20033;-76
2021/08/29 05:23:47;;;;;;;4.82;2.97;;;14.40;99.90;;;;;;5065094;28;20028;-75
2021/08/29 05:26:16;;;;;;;8.95;3.42;;;14.40;99.90;;;;;;5065068;28;20083;-77
2021/08/29 05:28:41;;;;;;;9.57;2.53;;;14.40;99.90;;;;;;5063789;28;20037;-72
2021/08/29 05:31:07;;;;;;;8.27;3.40;;;14.40;99.90;;;;;;5064951;28;20578;-72
2021/08/29 05:33:32;;;;;;;7.13;3.17;;;14.30;99.90;;;;;;5064959;28;20080;-74
2021/08/29 05:35:58;;;;;;;4.40;2.50;;;14.40;99.90;;;;;;5064974;28;20117;-73
2021/08/29 05:38:23;;;;;;;7.53;3.00;;;14.40;99.90;;;;;;5064666;28;20470;-75
2021/08/29 05:40:53;;;;;;;5.53;2.60;;;14.40;99.90;;;;;;5064873;28;20048;-74
2021/08/29 05:43:18;;;;;;;7.03;2.53;;;14.40;99.90;;;;;;5063673;28;20036;-73
2021/08/29 05:45:44;;;;;;;6.38;2.78;;;14.40;99.90;;;;;;5064750;28;20029;-74
2021/08/29 05:48:10;;;;;;;8.88;3.17;;;14.40;99.90;;;;;;5064783;28;20036;-73
2021/08/29 05:50:35;;;;;;;4.25;2.28;;;14.40;99.90;;;;;;5064638;28;20373;-73
2021/08/29 05:53:01;;;;;;;4.00;2.55;;;14.40;99.90;;;;;;5064608;28;20105;-74
2021/08/29 05:55:27;;;;;;;4.97;2.20;;;14.50;99.90;;;;;;5063689;28;20429;-74
2021/08/29 05:57:52;;;;;;;7.03;2.30;;;14.40;99.90;;;;;;5062000;28;20471;-75
2021/08/29 06:00:20;;;;;;;4.30;2.47;;;14.40;99.90;;;;;;5052246;28;20032;-75
2021/08/29 06:02:45;;;;;;;8.55;3.50;;;14.40;99.90;;;;;;5050031;28;20029;-74
2021/08/29 06:05:11;;;;;;;5.70;2.92;;;14.50;99.90;;;;;;5049587;28;20112;-73
2021/08/29 06:07:37;;;;;;;8.00;3.25;;;14.60;99.90;;;;;;5063254;28;20044;-72
2021/08/29 06:10:04;;;;;;;3.42;1.98;;;14.50;99.90;;;;;;5061996;28;20491;-73
2021/08/29 06:12:29;;;;;;;11.35;2.45;;;14.60;99.90;;;;;;5054227;28;20069;-73
2021/08/29 06:14:55;;;;;;;7.88;2.95;;;14.60;99.90;;;;;;5053880;28;20032;-73
2021/08/29 06:17:20;;;;;;;4.82;2.80;;;14.60;99.90;;;;;;5046683;28;20049;-73
2021/08/29 06:19:47;;;;;;;3.03;2.00;;;14.60;99.90;;;;;;5054949;28;20069;-73
2021/08/29 06:22:13;;;;;;;13.65;3.05;;;14.70;99.90;;;;;;5053408;28;20056;-74
2021/08/29 06:24:38;;;;;;;3.60;2.50;;;14.70;99.90;;;;;;5049181;28;20029;-74
2021/08/29 06:27:04;;;;;;;6.25;2.95;;;14.80;99.90;;;;;;5062559;28;20119;-74
2021/08/29 06:29:29;;;;;;;3.78;2.33;;;14.80;99.90;;;;;;5063080;28;20033;-73
2021/08/29 06:31:56;;;;;;;5.13;2.72;;;14.80;99.90;;;;;;5063643;28;20041;-72
2021/08/29 06:34:22;;;;;;;9.75;2.65;;;14.90;99.90;;;;;;5056653;28;20041;-72
2021/08/29 06:36:51;;;;;;;9.45;3.22;;;14.90;99.90;;;;;;5063661;28;20037;-73
2021/08/29 06:39:17;;;;;;;4.47;2.50;;;14.80;99.90;;;;;;5064395;28;20040;-74
2021/08/29 06:41:43;;;;;;;11.43;2.80;;;14.80;99.90;;;;;;5063531;28;20058;-73
2021/08/29 06:44:09;;;;;;;5.88;2.72;;;14.80;99.90;;;;;;5061461;28;20064;-73
2021/08/29 06:46:34;;;;;;;4.07;2.30;;;14.80;99.90;;;;;;5063468;28;20045;-73
2021/08/29 06:49:00;;;;;;;4.05;2.53;;;14.90;99.90;;;;;;5069730;28;20057;-74
2021/08/29 06:51:26;;;;;;;6.28;2.47;;;14.80;99.90;;;;;;5044264;28;20446;-72
2021/08/29 06:53:51;;;;;;;2.80;1.77;;;14.80;99.90;;;;;;5044138;28;20051;-73
2021/08/29 06:56:17;;;;;;;6.88;2.53;;;14.80;99.90;;;;;;5044285;28;20029;-72
2021/08/29 06:58:43;;;;;;;4.93;2.17;;;14.80;99.90;;;;;;5044268;28;20451;-72
2021/08/29 07:01:09;;;;;;;3.47;2.40;;;14.90;99.90;;;;;;5045683;28;20056;-73
2021/08/29 07:03:34;;;;;;;3.45;2.03;;;14.90;99.90;;;;;;5070071;28;20036;-74
2021/08/29 07:06:00;;;;;;;4.47;2.10;;;14.90;99.90;;;;;;5042820;28;20041;-74
2021/08/29 07:08:25;;;;;;;3.30;1.88;;;14.90;99.90;;;;;;5047677;28;20029;-73
2021/08/29 07:10:51;;;;;;;5.53;1.42;;;14.90;99.90;;;;;;5047642;28;20025;-73
2021/08/29 07:13:16;;;;;;;2.60;1.92;;;15.00;99.90;;;;;;5047579;28;20025;-75
2021/08/29 07:15:42;;;;;;;3.15;1.77;;;15.00;99.90;;;;;;5047655;28;20105;-74
2021/08/29 07:18:08;;;;;;;4.85;2.30;;;15.00;99.90;;;;;;5047401;28;20494;-74
2021/08/29 07:20:33;;;;;;;4.15;1.95;;;15.00;99.90;;;;;;5056334;28;20029;-74
2021/08/29 07:22:59;;;;;;;4.90;2.00;;;15.00;99.90;;;;;;5067039;28;20029;-74
2021/08/29 07:25:24;;;;;;;2.80;1.80;;;15.00;99.90;;;;;;5067027;28;20036;-74
2021/08/29 07:27:50;;;;;;;4.25;1.98;;;15.10;99.90;;;;;;5067435;28;20041;-75
2021/08/29 07:30:16;;;;;;;3.30;1.38;;;15.10;99.90;;;;;;5066187;28;20501;-75
2021/08/29 07:32:41;;;;;;;4.60;2.17;;;15.10;99.90;;;;;;5066258;28;20070;-74
2021/08/29 07:35:07;;;;;;;7.07;1.52;;;15.10;99.90;;;;;;5065581;28;20033;-73
2021/08/29 07:37:33;;;;;;;2.75;1.35;;;15.20;99.90;;;;;;5066896;28;20067;-73
2021/08/29 07:39:58;;;;;;;3.17;1.48;;;15.10;99.90;;;;;;5066293;28;20021;-73
2021/08/29 07:42:24;;;;;;;3.13;1.65;;;15.10;99.90;;;;;;5066555;28;20051;-75
2021/08/29 07:44:50;;;;;;;3.42;2.03;;;15.20;99.90;;;;;;5065974;28;20041;-73
2021/08/29 07:47:16;;;;;;;1.55;0.85;;;15.20;99.90;;;;;;5067001;28;20505;-73
2021/08/29 07:49:45;;;;;;;2.63;1.17;;;15.20;99.90;;;;;;5065470;28;20029;-74
2021/08/29 07:52:11;;;;;;;2.20;1.27;;;15.20;99.90;;;;;;5066865;28;20033;-73
2021/08/29 07:54:37;;;;;;;1.98;1.10;;;15.30;99.90;;;;;;5065298;28;20068;-73
2021/08/29 07:57:02;;;;;;;3.40;1.55;;;15.30;99.90;;;;;;5064329;28;20096;-72
2021/08/29 07:59:28;;;;;;;1.30;1.00;;;15.30;99.90;;;;;;5063481;28;20029;-71
2021/08/29 08:01:54;;;;;;;8.50;1.30;;;15.30;99.90;;;;;;5074762;28;20033;-72
2021/08/29 08:04:19;;;;;;;2.40;1.33;;;15.40;99.90;;;;;;5065662;28;20025;-74
2021/08/29 08:06:45;;;;;;;1.52;1.00;;;15.40;99.90;;;;;;5065849;28;20078;-74
2021/08/29 08:09:10;;;;;;;3.72;1.30;;;15.50;99.90;;;;;;5066010;28;20043;-72
2021/08/29 08:11:36;;;;;;;1.83;1.30;;;15.60;99.90;;;;;;5065555;28;20037;-73
2021/08/29 08:14:02;;;;;;;2.08;1.20;;;15.60;99.90;;;;;;5064526;28;20036;-73
2021/08/29 08:16:27;;;;;;;2.25;1.40;;;15.60;99.90;;;;;;5065091;28;20029;-73
2021/08/29 08:18:54;;;;;;;1.70;1.00;;;15.70;99.90;;;;;;5063496;28;20045;-73
2021/08/29 08:21:24;;;;;;;2.47;0.98;;;15.70;99.90;;;;;;5054387;28;20063;-74
2021/08/29 08:23:50;;;;;;;2.28;1.15;;;15.70;99.90;;;;;;5062920;28;20033;-74
2021/08/29 08:26:16;;;;;;;2.20;1.10;;;15.80;99.90;;;;;;5051738;28;20033;-73
2021/08/29 08:28:41;;;;;;;1.85;1.08;;;15.80;99.90;;;;;;5052896;28;20029;-74
2021/08/29 08:31:07;;;;;;;5.20;1.27;;;15.80;99.90;;;;;;5054214;28;20024;-71
2021/08/29 08:33:33;;;;;;;1.83;0.98;;;15.80;99.90;;;;;;5065046;28;20111;-73
2021/08/29 08:35:58;;;;;;;1.48;1.10;;;15.80;99.90;;;;;;5065277;28;20025;-72
2021/08/29 08:38:24;;;;;;;1.65;1.05;;;15.80;99.90;;;;;;5063424;28;20040;-72
2021/08/29 08:40:50;;;;;;;3.78;1.35;;;15.90;99.90;;;;;;5064076;28;20093;-72
2021/08/29 08:43:17;;;;;;;2.83;0.75;;;15.80;99.90;;;;;;5049982;28;20038;-74
2021/08/29 08:45:47;;;;;;;1.23;0.70;;;15.80;99.90;;;;;;5064971;28;20060;-73
2021/08/29 08:48:13;;;;;;;1.02;0.73;;;15.90;99.90;;;;;;5063071;28;20401;-73
2021/08/29 08:50:45;;;;;;;10.07;0.68;;;15.90;99.90;;;;;;5064058;28;20043;-72
2021/08/29 08:53:14;;;;;;;3.15;0.95;;;15.90;99.90;;;;;;5064901;28;20035;-72
2021/08/29 08:55:41;;;;;;;1.52;0.93;;;16.00;99.90;;;;;;5080079;28;20025;-71
2021/08/29 08:58:08;;;;;;;3.22;1.08;;;16.00;99.90;;;;;;5064791;28;20041;-73
2021/08/29 09:00:34;;;;;;;1.17;0.82;;;16.10;99.90;;;;;;5076368;28;20439;-72
2021/08/29 09:03:01;;;;;;;1.13;0.68;;;16.20;99.90;;;;;;5044920;28;20041;-73
2021/08/29 09:05:27;;;;;;;2.85;0.82;;;16.20;99.90;;;;;;5044438;28;20092;-73
2021/08/29 09:07:52;;;;;;;0.70;0.50;;;16.30;99.90;;;;;;5043263;28;20041;-73
2021/08/29 09:10:18;;;;;;;2.67;0.60;;;16.30;99.90;;;;;;5044822;28;20033;-73
2021/08/29 09:12:59;;;;;;;1.65;0.93;;;16.30;99.90;;;;;;5044793;28;20063;-73
2021/08/29 09:15:25;;;;;;;1.70;0.80;;;16.40;99.90;;;;;;5056780;28;20466;-73
2021/08/29 09:17:52;;;;;;;2.15;1.23;;;16.40;99.90;;;;;;5079430;28;20480;-74
2021/08/29 09:20:27;;;;;;;0.88;0.60;;;16.40;99.90;;;;;;5064959;28;20470;-73
2021/08/29 09:23:00;;;;;;;1.23;0.65;;;16.30;99.90;;;;;;5065205;28;20104;-72
2021/08/29 09:25:28;;;;;;;1.45;0.77;;;16.30;99.90;;;;;;5064296;28;20037;-73
2021/08/29 09:28:00;;;;;;;0.70;0.60;;;16.20;99.90;;;;;;5063173;28;20114;-74
2021/08/29 09:30:29;;;;;;;1.42;1.00;;;16.20;99.90;;;;;;5063621;28;20048;-73
2021/08/29 09:33:00;;;;;;;1.42;0.90;;;16.20;99.90;;;;;;5062785;28;20089;-73
2021/08/29 09:35:29;;;;;;;1.92;0.73;;;16.30;99.90;;;;;;5062391;28;20025;-72
2021/08/29 09:37:56;;;;;;;1.20;0.88;;;16.20;99.90;;;;;;5062202;28;20028;-73
2021/08/29 09:40:29;;;;;;;1.80;1.08;;;16.20;99.90;;;;;;5062348;28;20025;-71
2021/08/29 09:42:56;;;;;;;2.10;1.13;;;16.30;99.90;;;;;;5054379;28;20029;-72
2021/08/29 09:45:27;;;;;;;1.58;1.08;;;16.30;99.90;;;;;;5053422;28;20053;-72
2021/08/29 09:47:57;;;;;;;1.85;1.00;;;16.30;99.90;;;;;;5051150;28;20108;-73
2021/08/29 09:50:27;;;;;;;2.53;1.10;;;16.40;99.90;;;;;;5043956;28;20108;-72
2021/08/29 09:53:07;;;;;;;1.77;0.93;;;16.40;99.90;;;;;;5053895;28;20032;-74
2021/08/29 09:55:42;;;;;;;2.10;1.05;;;16.40;99.90;;;;;;5062381;28;20056;-71
2021/08/29 09:58:31;;;;;;;2.60;1.33;;;16.50;99.90;;;;;;5063097;28;20033;-73
2021/08/29 10:01:17;;;;;;;1.60;1.13;;;16.50;99.90;;;;;;5063735;28;20028;-72
2021/08/29 10:03:46;;;;;;;3.95;1.52;;;16.50;99.90;;;;;;5063869;28;20037;-72
2021/08/29 10:06:30;;;;;;;3.25;1.92;;;16.50;99.90;;;;;;5064164;28;20472;-72
2021/08/29 10:09:00;;;;;;;1.90;1.00;;;16.60;99.90;;;;;;5063556;28;20040;-73
2021/08/29 10:11:28;;;;;;;2.13;1.20;;;16.60;99.90;;;;;;5063734;28;20021;-73
2021/08/29 10:13:56;;;;;;;3.55;1.67;;;16.60;99.90;;;;;;5072766;28;20120;-74
2021/08/29 10:16:23;;;;;;;2.20;1.40;;;16.60;99.90;;;;;;5062405;28;20035;-74
2021/08/29 10:18:53;;;;;;;3.20;1.92;;;16.70;99.90;;;;;;5062319;28;20048;-73
2021/08/29 10:21:24;;;;;;;2.05;1.17;;;16.70;99.90;;;;;;5063661;28;20021;-73
2021/08/29 10:23:53;;;;;;;2.35;1.45;;;16.80;99.90;;;;;;5079327;28;20029;-74
2021/08/29 10:26:22;;;;;;;2.85;1.55;;;16.90;99.90;;;;;;5063682;28;20075;-73
2021/08/29 10:29:03;;;;;;;2.97;1.50;;;16.90;99.90;;;;;;5063707;28;20025;-73
2021/08/29 10:31:41;;;;;;;3.13;1.38;;;17.00;99.90;;;;;;5078731;28;20029;-73
2021/08/29 10:34:08;;;;;;;3.00;1.27;;;17.00;99.90;;;;;;5063770;28;20025;-73
2021/08/29 10:36:35;;;;;;;2.60;1.60;;;17.00;99.90;;;;;;5063560;28;20029;-74
2021/08/29 10:39:02;;;;;;;2.70;1.58;;;17.00;99.90;;;;;;5064110;28;20029;-73
2021/08/29 10:41:28;;;;;;;2.25;1.60;;;17.00;99.90;;;;;;5064975;28;20032;-71
2021/08/29 10:43:54;;;;;;;1.60;1.20;;;17.00;99.90;;;;;;5067762;28;20033;-71
2021/08/29 10:46:20;;;;;;;10.25;1.63;;;17.00;99.90;;;;;;5067559;28;20048;-71
2021/08/29 10:48:50;;;;;;;2.90;1.50;;;17.00;99.90;;;;;;5064190;28;20124;-73
2021/08/29 10:51:19;;;;;;;2.95;1.60;;;17.10;99.90;;;;;;5054063;28;20029;-72
2021/08/29 10:53:56;;;;;;;3.63;1.60;;;17.10;99.90;;;;;;5060800;28;20033;-72
2021/08/29 10:56:29;;;;;;;1.65;1.33;;;17.10;99.90;;;;;;5054987;28;20116;-75
2021/08/29 10:59:23;;;;;;;2.53;1.48;;;17.10;99.90;;;;;;5055279;28;20108;-73
2021/08/29 11:01:55;;;;;;;2.30;1.55;;;17.10;99.90;;;;;;5046907;28;20041;-72
2021/08/29 11:04:26;;;;;;;6.30;1.80;;;17.10;99.90;;;;;;5055968;28;20104;-73
2021/08/29 11:06:57;;;;;;;3.63;1.45;;;17.20;99.90;;;;;;5060667;28;20047;-72
2021/08/29 11:09:35;;;;;;;2.85;1.58;;;17.20;99.90;;;;;;5046647;28;20028;-72
2021/08/29 11:12:02;;;;;;;3.17;1.42;;;17.30;99.90;;;;;;5053920;28;20409;-72
2021/08/29 11:14:52;;;;;;;2.35;1.70;;;17.30;99.90;;;;;;5070328;28;20042;-73
2021/08/29 11:17:27;;;;;;;1.83;1.27;;;17.20;99.90;;;;;;5065295;28;20053;-73
2021/08/29 11:20:14;;;;;;;2.38;1.42;;;17.30;99.90;;;;;;5057155;28;20500;-74
2021/08/29 11:22:48;;;;;;;3.35;1.65;;;17.20;99.90;;;;;;5065709;28;20033;-73
2021/08/29 11:25:19;;;;;;;2.67;1.63;;;17.40;99.90;;;;;;5066667;28;20025;-73
2021/08/29 11:27:49;;;;;;;2.65;1.65;;;17.40;99.90;;;;;;5067131;28;20033;-73
2021/08/29 11:30:26;;;;;;;4.72;2.22;;;17.40;99.90;;;;;;5066918;28;20094;-73
2021/08/29 11:33:09;;;;;;;3.25;1.67;;;17.40;99.90;;;;;;5067397;28;20077;-74
2021/08/29 11:35:50;;;;;;;8.77;1.90;;;17.50;99.90;;;;;;5068454;28;20035;-72
2021/08/29 11:38:19;;;;;;;1.80;1.35;;;17.50;99.90;;;;;;5067549;28;20029;-75
2021/08/29 11:40:46;;;;;;;2.25;1.67;;;17.60;99.90;;;;;;5067309;28;20040;-73
2021/08/29 11:43:26;;;;;;;3.22;1.65;;;17.60;99.90;;;;;;5067050;28;20735;-73
2021/08/29 11:46:14;;;;;;;2.38;1.73;;;17.70;99.90;;;;;;5065174;28;20481;-74
2021/08/29 11:48:55;;;;;;;2.97;1.58;;;17.70;99.90;;;;;;5064327;28;20028;-74
2021/08/29 11:51:31;;;;;;;2.65;1.42;;;17.60;99.90;;;;;;5066138;28;20033;-74
2021/08/29 11:54:01;;;;;;;5.07;2.20;;;17.60;99.90;;;;;;5065018;28;20033;-74
2021/08/29 11:56:29;;;;;;;2.08;1.50;;;17.60;99.90;;;;;;5064627;28;20029;-74
2021/08/29 11:59:01;;;;;;;4.47;1.77;;;17.60;99.90;;;;;;5065857;28;20036;-74
2021/08/29 12:01:34;;;;;;;2.55;1.73;;;17.70;99.90;;;;;;5064672;28;20029;-73
2021/08/29 12:04:02;;;;;;;2.30;1.40;;;17.80;99.90;;;;;;5064432;28;20029;-75
2021/08/29 12:06:52;;;;;;;1.60;1.17;;;17.90;99.90;;;;;;5065594;28;20083;-74
2021/08/29 12:09:28;;;;;;;2.47;1.63;;;17.90;99.90;;;;;;5065861;28;20029;-75
2021/08/29 12:11:55;;;;;;;2.95;1.75;;;18.00;99.90;;;;;;5065800;28;20064;-74
2021/08/29 12:14:27;;;;;;;3.08;1.88;;;18.10;99.90;;;;;;5065647;28;20025;-75
2021/08/29 12:16:56;;;;;;;4.40;2.03;;;18.30;99.90;;;;;;5065239;28;20124;-74
2021/08/29 12:19:29;;;;;;;3.80;1.80;;;18.40;99.90;;;;;;5075095;28;20029;-74
2021/08/29 12:21:56;;;;;;;2.95;1.67;;;18.40;99.90;;;;;;5046231;28;20104;-74
2021/08/29 12:24:28;;;;;;;3.58;1.63;;;18.40;99.90;;;;;;5046272;28;20037;-73
2021/08/29 12:27:09;;;;;;;3.10;1.70;;;18.50;99.90;;;;;;5046219;28;20037;-74
2021/08/29 12:29:51;;;;;;;3.92;2.35;;;18.50;99.90;;;;;;5046097;28;20033;-72
2021/08/29 12:32:22;;;;;;;3.45;1.88;;;18.50;99.90;;;;;;5046319;28;20033;-73
2021/08/29 12:34:53;;;;;;;2.45;1.88;;;18.40;99.90;;;;;;5044943;28;20046;-73
2021/08/29 12:37:20;;;;;;;3.20;2.05;;;18.30;99.90;;;;;;5046097;28;20098;-73
2021/08/29 12:39:57;;;;;;;4.75;2.22;;;18.20;99.90;;;;;;5045335;28;20113;-74
2021/08/29 12:42:25;;;;;;;3.45;1.98;;;18.10;99.90;;;;;;5046203;28;20163;-72
2021/08/29 12:44:51;;;;;;;4.68;1.88;;;18.00;99.90;;;;;;5046092;28;20022;-73
2021/08/29 12:47:18;;;;;;;3.03;1.98;;;18.00;99.90;;;;;;5044546;28;20068;-74
2021/08/29 12:49:45;;;;;;;2.83;1.77;;;17.90;99.90;;;;;;5044536;28;20033;-73
2021/08/29 12:52:27;;;;;;;3.95;2.08;;;17.90;99.90;;;;;;5044467;28;20052;-74